createdAt,value
2023-05-01T00:01:10.232Z,7.44
2023-05-01T00:03:38.112Z,7.40
2023-05-01T00:06:06.079Z,7.35
2023-05-01T00:08:33.822Z,7.34
2023-05-01T00:11:01.483Z,7.32
2023-05-01T00:13:29.260Z,7.30
2023-05-01T00:15:57.040Z,7.30
2023-05-01T00:18:24.775Z,7.29
2023-05-01T00:20:52.436Z,7.28
2023-05-01T00:23:20.100Z,7.27
2023-05-01T00:25:47.766Z,7.28
2023-05-01T00:28:15.423Z,7.29
2023-05-01T00:30:43.189Z,7.30
2023-05-01T00:33:10.918Z,7.30
2023-05-01T00:35:38.822Z,7.29
2023-05-01T00:38:07.506Z,7.29
2023-05-01T00:40:35.169Z,7.28
2023-05-01T00:43:03.547Z,7.26
2023-05-01T00:45:31.237Z,7.26
2023-05-01T00:47:59.233Z,7.27
2023-05-01T00:50:27.052Z,7.28
2023-05-01T00:52:54.722Z,7.26
2023-05-01T00:55:22.470Z,7.26
2023-05-01T00:57:50.132Z,7.26
2023-05-01T01:03:52.025Z,7.25
2023-05-01T01:06:20.052Z,7.24
2023-05-01T01:08:47.852Z,7.22
2023-05-01T01:11:15.816Z,7.21
2023-05-01T01:13:44.200Z,7.19
2023-05-01T01:16:12.030Z,7.16
2023-05-01T01:18:39.827Z,7.16
2023-05-01T01:21:07.492Z,7.13
2023-05-01T01:23:35.156Z,7.12
2023-05-01T01:26:02.915Z,7.48
2023-05-01T01:28:30.777Z,10.16
2023-05-01T01:30:58.503Z,12.25
2023-05-01T01:33:26.346Z,11.56
2023-05-01T01:35:54.072Z,10.52
2023-05-01T01:38:21.837Z,9.80
2023-05-01T01:40:49.499Z,9.32
2023-05-01T01:43:17.159Z,8.98
2023-05-01T01:45:44.968Z,8.73
2023-05-01T01:48:12.814Z,8.51
2023-05-01T01:50:40.565Z,8.32
2023-05-01T01:53:08.224Z,8.15
2023-05-01T01:55:36.083Z,8.00
2023-05-01T01:58:03.748Z,7.86
2023-05-01T02:00:31.407Z,7.74
2023-05-01T02:02:59.148Z,7.63
2023-05-01T02:05:26.853Z,7.53
2023-05-01T02:07:54.594Z,7.44
2023-05-01T02:10:23.077Z,7.35
2023-05-01T02:12:50.751Z,7.27
2023-05-01T02:15:19.268Z,7.18
2023-05-01T02:17:47.106Z,7.10
2023-05-01T02:20:15.467Z,7.03
2023-05-01T02:22:43.236Z,6.96
2023-05-01T02:25:10.906Z,6.91
2023-05-01T02:27:39.171Z,6.88
2023-05-01T02:30:07.138Z,7.24
2023-05-01T02:32:35.311Z,10.05
2023-05-01T02:35:03.285Z,12.17
2023-05-01T02:37:31.353Z,11.44
2023-05-01T02:39:59.246Z,10.35
2023-05-01T02:42:27.087Z,9.59
2023-05-01T02:44:55.568Z,9.07
2023-05-01T02:47:23.473Z,8.68
2023-05-01T02:49:51.305Z,8.40
2023-05-01T02:52:18.962Z,8.15
2023-05-01T02:54:46.694Z,7.92
2023-05-01T02:57:14.491Z,7.72
2023-05-01T02:59:42.153Z,7.51
2023-05-01T03:02:09.830Z,7.34
2023-05-01T03:04:37.672Z,7.20
2023-05-01T03:07:05.453Z,7.07
2023-05-01T03:09:33.111Z,6.99
2023-05-01T03:12:01.283Z,6.90
2023-05-01T03:14:29.688Z,6.81
2023-05-01T03:16:58.554Z,6.73
2023-05-01T03:19:26.211Z,6.66
2023-05-01T03:21:53.878Z,6.59
2023-05-01T03:24:22.059Z,6.53
2023-05-01T03:26:49.707Z,6.46
2023-05-01T03:29:17.476Z,6.40
2023-05-01T03:31:45.251Z,6.75
2023-05-01T03:34:12.994Z,9.46
2023-05-01T03:36:41.174Z,11.73
2023-05-01T03:39:09.144Z,11.07
2023-05-01T03:41:36.905Z,9.95
2023-05-01T03:44:04.680Z,9.19
2023-05-01T03:46:32.406Z,8.69
2023-05-01T03:49:00.195Z,8.35
2023-05-01T03:51:28.263Z,8.08
2023-05-01T03:54:00.209Z,7.83
2023-05-01T03:56:28.099Z,7.64
2023-05-01T03:58:56.577Z,7.47
2023-05-01T04:01:24.248Z,7.32
2023-05-01T04:03:52.452Z,7.19
2023-05-01T04:06:20.549Z,7.08
2023-05-01T04:08:48.356Z,6.98
2023-05-01T04:11:16.220Z,6.89
2023-05-01T04:13:43.983Z,6.83
2023-05-01T04:16:11.696Z,6.76
2023-05-01T04:18:39.409Z,6.71
2023-05-01T04:21:07.793Z,6.67
2023-05-01T04:23:35.452Z,6.66
2023-05-01T04:26:04.338Z,7.14
2023-05-01T04:28:32.211Z,10.01
2023-05-01T04:30:59.976Z,12.01
2023-05-01T04:33:28.564Z,11.31
2023-05-01T04:35:56.222Z,10.29
2023-05-01T04:38:23.976Z,9.62
2023-05-01T04:40:52.762Z,9.19
2023-05-01T04:43:20.729Z,8.89
2023-05-01T04:45:48.395Z,8.68
2023-05-01T04:48:16.241Z,8.51
2023-05-01T04:50:44.540Z,8.37
2023-05-01T04:53:12.215Z,8.27
2023-05-01T04:55:39.874Z,8.18
2023-05-01T04:58:07.522Z,8.10
2023-05-01T05:00:35.283Z,8.05
2023-05-01T05:03:03.292Z,8.00
2023-05-01T05:05:31.221Z,7.97
2023-05-01T05:07:58.889Z,7.95
2023-05-01T05:10:26.542Z,7.94
2023-05-01T05:12:54.517Z,7.93
2023-05-01T05:15:22.393Z,7.93
2023-05-01T05:17:50.111Z,7.94
2023-05-01T05:20:17.912Z,7.96
2023-05-01T05:22:45.776Z,7.98
2023-05-01T05:25:13.548Z,8.01
2023-05-01T05:27:41.213Z,8.04
2023-05-01T05:30:08.874Z,8.07
2023-05-01T05:32:36.775Z,8.11
2023-05-01T05:35:05.112Z,8.16
2023-05-01T05:37:32.979Z,8.19
2023-05-01T05:40:00.643Z,8.24
2023-05-01T05:42:28.508Z,8.29
2023-05-01T05:44:56.273Z,8.34
2023-05-01T05:47:23.937Z,8.39
2023-05-01T05:49:51.609Z,8.45
2023-05-01T05:52:19.254Z,8.51
2023-05-01T05:54:47.025Z,8.58
2023-05-01T05:57:14.681Z,8.64
2023-05-01T05:59:42.656Z,8.70
2023-05-01T06:02:10.360Z,8.76
2023-05-01T06:04:38.078Z,8.82
2023-05-01T06:07:06.675Z,8.88
2023-05-01T06:09:34.330Z,8.95
2023-05-01T06:12:02.708Z,9.01
2023-05-01T06:14:30.368Z,9.07
2023-05-01T06:16:58.029Z,9.11
2023-05-01T06:19:25.897Z,9.16
2023-05-01T06:21:53.561Z,9.21
2023-05-01T06:24:21.730Z,9.26
2023-05-01T06:26:49.394Z,9.31
2023-05-01T06:29:17.156Z,9.37
2023-05-01T06:31:44.945Z,9.42
2023-05-01T06:34:13.398Z,9.47
2023-05-01T06:36:41.060Z,9.53
2023-05-01T06:39:08.931Z,9.58
2023-05-01T06:41:36.699Z,9.64
2023-05-01T06:44:04.462Z,9.68
2023-05-01T06:46:32.158Z,9.73
2023-05-01T06:48:59.990Z,9.79
2023-05-01T06:51:27.850Z,9.85
2023-05-01T06:53:55.616Z,9.91
2023-05-01T06:56:23.382Z,9.96
2023-05-01T06:58:51.038Z,10.01
2023-05-01T07:01:18.818Z,10.07
2023-05-01T07:03:46.691Z,10.13
2023-05-01T07:06:14.473Z,10.18
2023-05-01T07:08:42.108Z,10.24
2023-05-01T07:11:09.973Z,10.28
2023-05-01T07:13:37.781Z,10.34
2023-05-01T07:16:05.600Z,10.40
2023-05-01T07:18:33.364Z,10.46
2023-05-01T07:21:01.028Z,10.52
2023-05-01T07:23:29.193Z,10.58
2023-05-01T07:25:57.273Z,10.63
2023-05-01T07:28:25.030Z,10.70
2023-05-01T07:30:52.794Z,10.75
2023-05-01T07:33:20.638Z,10.82
2023-05-01T07:35:48.420Z,10.89
2023-05-01T07:38:16.098Z,10.95
2023-05-01T07:40:43.754Z,11.01
2023-05-01T07:43:12.128Z,11.08
2023-05-01T07:45:40.207Z,11.13
2023-05-01T07:48:08.007Z,11.19
2023-05-01T07:50:35.829Z,11.26
2023-05-01T07:53:03.523Z,11.33
2023-05-01T07:55:31.263Z,11.39
2023-05-01T07:57:58.811Z,11.47
2023-05-01T08:00:28.727Z,11.54
2023-05-01T08:02:56.588Z,11.59
2023-05-01T08:05:24.464Z,11.66
2023-05-01T08:07:52.210Z,11.73
2023-05-01T08:10:19.986Z,11.79
2023-05-01T08:12:47.652Z,11.85
2023-05-01T08:15:15.311Z,11.92
2023-05-01T08:17:43.016Z,12.00
2023-05-01T08:20:10.839Z,12.06
2023-05-01T08:22:38.504Z,12.13
2023-05-01T08:25:06.168Z,12.22
2023-05-01T08:27:34.204Z,12.29
2023-05-01T08:30:01.896Z,12.36
2023-05-01T08:32:29.567Z,12.42
2023-05-01T08:34:57.325Z,12.48
2023-05-01T08:37:25.191Z,12.53
2023-05-01T08:39:52.955Z,12.60
2023-05-01T08:42:20.716Z,12.67
2023-05-01T08:44:48.598Z,12.75
2023-05-01T08:47:16.460Z,12.81
2023-05-01T08:49:44.213Z,12.87
2023-05-01T08:52:12.144Z,12.92
2023-05-01T08:54:39.948Z,12.98
2023-05-01T08:57:09.706Z,13.04
2023-05-01T08:59:38.252Z,13.12
2023-05-01T09:02:06.236Z,13.17
2023-05-01T09:04:34.173Z,13.23
2023-05-01T09:07:02.218Z,13.31
2023-05-01T09:09:29.832Z,13.38
2023-05-01T09:11:58.389Z,13.47
2023-05-01T09:14:26.160Z,13.53
2023-05-01T09:16:53.880Z,13.62
2023-05-01T09:19:21.675Z,13.71
2023-05-01T09:21:49.342Z,13.80
2023-05-01T09:24:17.730Z,13.90
2023-05-01T09:26:45.399Z,13.99
2023-05-01T09:29:15.299Z,14.09
2023-05-01T09:31:42.986Z,14.19
2023-05-01T09:34:10.828Z,14.27
2023-05-01T09:36:38.594Z,14.37
2023-05-01T09:39:06.276Z,14.47
2023-05-01T09:41:34.141Z,14.58
2023-05-01T09:44:01.982Z,14.68
2023-05-01T09:46:29.878Z,14.77
2023-05-01T09:48:58.999Z,14.88
2023-05-01T09:51:30.085Z,14.98
2023-05-01T09:53:57.854Z,15.08
2023-05-01T09:56:25.622Z,15.20
2023-05-01T09:58:53.591Z,15.34
2023-05-01T10:01:21.272Z,15.46
2023-05-01T10:03:49.127Z,15.57
2023-05-01T10:06:16.967Z,15.69
2023-05-01T10:08:45.670Z,15.82
2023-05-01T10:11:13.435Z,15.94
2023-05-01T10:13:41.198Z,16.03
2023-05-01T10:16:10.704Z,16.15
2023-05-01T10:18:38.369Z,16.27
2023-05-01T10:21:06.230Z,16.39
2023-05-01T10:23:34.713Z,16.50
2023-05-01T10:26:11.998Z,16.61
2023-05-01T10:28:39.661Z,16.72
2023-05-01T10:31:07.374Z,16.83
2023-05-01T10:33:35.112Z,16.93
2023-05-01T10:36:02.772Z,17.03
2023-05-01T10:38:30.719Z,17.12
2023-05-01T10:40:58.493Z,17.18
2023-05-01T10:43:26.549Z,17.23
2023-05-01T10:45:55.336Z,17.32
2023-05-01T10:48:23.000Z,17.40
2023-05-01T10:50:50.868Z,17.48
2023-05-01T10:53:18.841Z,17.55
2023-05-01T10:55:46.821Z,17.62
2023-05-01T10:58:14.681Z,17.71
2023-05-01T11:00:42.454Z,17.80
2023-05-01T11:03:10.166Z,17.87
2023-05-01T11:05:38.649Z,17.95
2023-05-01T11:08:06.548Z,18.04
2023-05-01T11:10:34.211Z,18.11
2023-05-01T11:13:01.872Z,18.22
2023-05-01T11:15:29.648Z,18.30
2023-05-01T11:17:57.426Z,18.37
2023-05-01T11:20:25.176Z,18.44
2023-05-01T11:22:52.824Z,18.52
2023-05-01T11:25:20.894Z,18.59
2023-05-01T11:27:48.764Z,18.65
2023-05-01T11:30:16.430Z,18.69
2023-05-01T11:32:44.855Z,18.70
2023-05-01T11:35:12.569Z,18.72
2023-05-01T11:37:41.175Z,18.76
2023-05-01T11:40:11.732Z,18.80
2023-05-01T11:42:39.563Z,18.84
2023-05-01T11:45:07.322Z,18.91
2023-05-01T11:47:35.099Z,19.02
2023-05-01T11:50:02.888Z,19.10
2023-05-01T11:52:31.335Z,19.18
2023-05-01T11:55:03.663Z,19.25
2023-05-01T11:57:32.198Z,19.33
2023-05-01T11:59:59.939Z,19.41
2023-05-01T12:02:27.681Z,19.47
2023-05-01T12:04:55.777Z,19.50
2023-05-01T12:07:23.743Z,19.55
2023-05-01T12:10:02.876Z,19.58
2023-05-01T12:12:30.637Z,19.61
2023-05-01T12:14:59.190Z,19.62
2023-05-01T12:17:28.719Z,19.66
2023-05-01T12:19:57.110Z,19.71
2023-05-01T12:22:24.870Z,19.72
2023-05-01T12:24:55.101Z,19.74
2023-05-01T12:27:23.069Z,19.76
2023-05-01T12:29:50.825Z,19.80
2023-05-01T12:32:18.583Z,19.85
2023-05-01T12:34:46.477Z,19.89
2023-05-01T12:37:14.429Z,19.93
2023-05-01T12:39:45.882Z,19.97
2023-05-01T12:42:14.556Z,20.03
2023-05-01T12:44:42.331Z,20.07
2023-05-01T12:47:11.864Z,20.10
2023-05-01T12:49:40.928Z,20.12
2023-05-01T12:52:09.365Z,20.13
2023-05-01T12:54:40.969Z,20.11
2023-05-01T12:57:08.718Z,20.12
2023-05-01T12:59:36.398Z,20.15
2023-05-01T13:02:04.326Z,20.17
2023-05-01T13:04:32.358Z,20.19
2023-05-01T13:07:00.592Z,20.21
2023-05-01T13:09:28.630Z,20.23
2023-05-01T13:11:56.648Z,20.24
2023-05-01T13:14:24.433Z,20.26
2023-05-01T13:16:52.959Z,20.26
2023-05-01T13:19:20.847Z,20.28
2023-05-01T13:21:49.127Z,20.30
2023-05-01T13:24:16.888Z,20.33
2023-05-01T13:26:44.518Z,20.34
2023-05-01T13:29:13.235Z,20.40
2023-05-01T13:31:40.928Z,20.45
2023-05-01T13:34:08.866Z,20.47
2023-05-01T13:36:36.630Z,20.45
2023-05-01T13:39:04.404Z,20.44
2023-05-01T13:41:32.563Z,20.44
2023-05-01T13:44:00.238Z,20.45
2023-05-01T13:46:28.187Z,20.47
2023-05-01T13:48:56.568Z,20.50
2023-05-01T13:51:24.281Z,20.54
2023-05-01T13:53:53.882Z,20.57
2023-05-01T13:56:22.380Z,20.58
2023-05-01T13:58:50.605Z,20.59
2023-05-01T14:01:19.176Z,20.61
2023-05-01T14:03:47.263Z,20.63
2023-05-01T14:06:15.473Z,20.64
2023-05-01T14:08:47.181Z,20.65
2023-05-01T14:11:14.951Z,20.68
2023-05-01T14:13:42.723Z,20.73
2023-05-01T14:16:29.964Z,20.77
2023-05-01T14:18:57.848Z,20.78
2023-05-01T14:21:27.434Z,20.76
2023-05-01T14:23:55.173Z,20.74
2023-05-01T14:26:25.036Z,20.74
2023-05-01T14:28:52.849Z,20.76
2023-05-01T14:31:20.961Z,20.75
2023-05-01T14:33:48.995Z,20.71
2023-05-01T14:36:17.371Z,20.69
2023-05-01T14:38:48.828Z,20.68
2023-05-01T14:41:18.241Z,20.65
2023-05-01T14:43:46.423Z,20.64
2023-05-01T14:46:14.186Z,20.63
2023-05-01T14:48:41.931Z,20.61
2023-05-01T14:51:10.006Z,20.61
2023-05-01T14:53:37.778Z,20.60
2023-05-01T14:56:05.639Z,20.57
2023-05-01T14:58:33.410Z,20.54
2023-05-01T15:01:02.399Z,20.52
2023-05-01T15:03:30.149Z,20.50
2023-05-01T15:05:58.598Z,20.49
2023-05-01T15:08:26.422Z,20.45
2023-05-01T15:10:54.139Z,20.40
2023-05-01T15:13:22.241Z,20.38
2023-05-01T15:15:50.064Z,20.36
2023-05-01T15:18:18.642Z,20.34
2023-05-01T15:20:46.775Z,20.33
2023-05-01T15:23:15.349Z,20.31
2023-05-01T15:25:44.689Z,20.31
2023-05-01T15:28:12.417Z,20.30
2023-05-01T15:30:40.179Z,20.28
2023-05-01T15:33:07.897Z,20.28
2023-05-01T15:35:35.612Z,20.29
2023-05-01T15:38:04.193Z,20.34
2023-05-01T15:40:33.184Z,20.44
2023-05-01T15:43:01.462Z,20.58
2023-05-01T15:45:29.432Z,20.69
2023-05-01T15:47:57.334Z,20.80
2023-05-01T15:50:25.077Z,20.91
2023-05-01T15:52:52.839Z,21.01
2023-05-01T15:55:21.923Z,21.18
2023-05-01T15:57:49.675Z,21.49
2023-05-01T16:00:17.439Z,21.76
2023-05-01T16:02:45.325Z,21.94
2023-05-01T16:05:13.890Z,22.19
2023-05-01T16:07:41.554Z,22.61
2023-05-01T16:10:09.217Z,23.11
2023-05-01T16:12:37.389Z,23.43
2023-05-01T16:15:05.047Z,23.45
2023-05-01T16:17:33.903Z,23.27
2023-05-01T16:20:02.574Z,23.07
2023-05-01T16:22:30.796Z,22.89
2023-05-01T16:25:00.416Z,22.66
2023-05-01T16:27:28.166Z,22.39
2023-05-01T16:29:55.909Z,22.13
2023-05-01T16:32:24.576Z,21.90
2023-05-01T16:34:52.483Z,21.67
2023-05-01T16:37:20.143Z,21.43
2023-05-01T16:39:48.725Z,21.24
2023-05-01T16:42:16.498Z,21.07
2023-05-01T16:44:44.253Z,20.92
2023-05-01T16:47:12.022Z,20.77
2023-05-01T16:49:39.680Z,20.69
2023-05-01T16:52:07.555Z,20.73
2023-05-01T16:54:38.075Z,20.75
2023-05-01T16:57:06.348Z,20.63
2023-05-01T16:59:34.735Z,20.41
2023-05-01T17:02:02.471Z,20.15
2023-05-01T17:04:30.362Z,19.91
2023-05-01T17:06:58.264Z,19.70
2023-05-01T17:09:26.811Z,19.49
2023-05-01T17:11:56.927Z,19.29
2023-05-01T17:14:24.852Z,19.12
2023-05-01T17:16:52.658Z,18.96
2023-05-01T17:19:20.746Z,18.82
2023-05-01T17:21:48.512Z,18.69
2023-05-01T17:24:16.567Z,18.56
2023-05-01T17:26:44.543Z,18.41
2023-05-01T17:29:12.196Z,18.26
2023-05-01T17:31:39.873Z,18.12
2023-05-01T17:34:07.523Z,17.99
2023-05-01T17:36:35.287Z,17.87
2023-05-01T17:39:04.382Z,17.76
2023-05-01T17:41:32.047Z,17.67
2023-05-01T17:43:59.814Z,17.55
2023-05-01T17:46:27.660Z,17.44
2023-05-01T17:48:55.963Z,17.34
2023-05-01T17:51:23.718Z,17.23
2023-05-01T17:53:51.591Z,17.14
2023-05-01T17:56:19.245Z,17.04
2023-05-01T17:58:47.318Z,16.95
2023-05-01T18:01:15.827Z,16.85
2023-05-01T18:03:43.854Z,16.77
2023-05-01T18:06:11.687Z,16.70
2023-05-01T18:08:39.605Z,16.61
2023-05-01T18:11:08.082Z,16.53
2023-05-01T18:13:40.109Z,16.45
2023-05-01T18:16:07.915Z,16.38
2023-05-01T18:18:35.795Z,16.30
2023-05-01T18:21:03.544Z,16.23
2023-05-01T18:23:31.407Z,16.16
2023-05-01T18:25:59.483Z,16.09
2023-05-01T18:28:27.352Z,16.03
2023-05-01T18:30:55.127Z,15.96
2023-05-01T18:33:23.027Z,15.89
2023-05-01T18:35:50.854Z,15.83
2023-05-01T18:38:18.608Z,15.76
2023-05-01T18:40:46.376Z,15.70
2023-05-01T18:43:14.444Z,15.63
2023-05-01T18:45:42.209Z,15.56
2023-05-01T18:48:10.053Z,15.49
2023-05-01T18:50:37.737Z,15.44
2023-05-01T18:53:05.515Z,15.39
2023-05-01T18:55:33.914Z,15.34
2023-05-01T18:58:02.272Z,15.29
2023-05-01T19:00:30.856Z,15.25
2023-05-01T19:02:58.764Z,15.21
2023-05-01T19:05:28.283Z,15.16
2023-05-01T19:08:00.789Z,15.13
2023-05-01T19:10:28.449Z,15.09
2023-05-01T19:12:56.319Z,15.05
2023-05-01T19:15:23.979Z,14.99
2023-05-01T19:17:51.878Z,14.95
2023-05-01T19:20:19.827Z,14.90
2023-05-01T19:22:47.487Z,14.85
2023-05-01T19:25:15.239Z,14.82
2023-05-01T19:27:43.006Z,14.77
2023-05-01T19:30:10.691Z,14.74
2023-05-01T19:32:38.697Z,14.70
2023-05-01T19:35:06.604Z,14.66
2023-05-01T19:37:34.265Z,14.63
2023-05-01T19:40:02.218Z,14.59
2023-05-01T19:42:30.611Z,14.55
2023-05-01T19:44:58.378Z,14.52
2023-05-01T19:47:26.162Z,14.47
2023-05-01T19:49:54.011Z,14.41
2023-05-01T19:52:21.873Z,14.37
2023-05-01T19:54:49.742Z,14.34
2023-05-01T19:57:17.557Z,14.30
2023-05-01T19:59:45.270Z,14.25
2023-05-01T20:02:12.970Z,14.22
2023-05-01T20:04:40.959Z,14.20
2023-05-01T20:07:08.870Z,14.18
2023-05-01T20:09:36.529Z,14.15
2023-05-01T20:12:04.294Z,14.12
2023-05-01T20:14:34.084Z,14.10
2023-05-01T20:17:02.103Z,14.07
2023-05-01T20:19:31.378Z,14.04
2023-05-01T20:21:59.038Z,14.01
2023-05-01T20:24:27.007Z,13.97
2023-05-01T20:26:56.041Z,13.93
2023-05-01T20:29:23.871Z,13.89
2023-05-01T20:31:54.911Z,13.86
2023-05-01T20:34:22.674Z,13.83
2023-05-01T20:36:50.651Z,13.82
2023-05-01T20:39:18.403Z,13.81
2023-05-01T20:41:46.062Z,13.78
2023-05-01T20:44:13.727Z,13.76
2023-05-01T20:46:41.728Z,13.74
2023-05-01T20:49:10.393Z,13.72
2023-05-01T20:51:39.376Z,13.70
2023-05-01T20:54:07.860Z,13.67
2023-05-01T20:56:35.620Z,13.63
2023-05-01T20:59:03.384Z,13.61
2023-05-01T21:01:31.477Z,13.58
2023-05-01T21:03:59.969Z,13.54
2023-05-01T21:06:28.278Z,13.51
2023-05-01T21:08:55.976Z,13.48
2023-05-01T21:11:23.744Z,13.46
2023-05-01T21:13:51.401Z,13.44
2023-05-01T21:16:19.999Z,13.42
2023-05-01T21:18:47.852Z,13.39
2023-05-01T21:21:16.337Z,13.36
2023-05-01T21:23:44.095Z,13.34
2023-05-01T21:26:11.728Z,13.32
2023-05-01T21:28:39.423Z,13.30
2023-05-01T21:31:07.442Z,13.29
2023-05-01T21:33:35.255Z,13.28
2023-05-01T21:36:03.771Z,13.26
2023-05-01T21:38:31.505Z,13.26
2023-05-01T21:40:59.276Z,13.27
2023-05-01T21:43:27.037Z,13.28
2023-05-01T21:45:54.996Z,13.30
2023-05-01T21:48:22.978Z,13.31
2023-05-01T21:50:50.633Z,13.32
2023-05-01T21:53:18.390Z,13.34
2023-05-01T21:55:46.669Z,13.35
2023-05-01T21:58:14.431Z,13.35
2023-05-01T22:00:42.127Z,13.35
2023-05-01T22:03:10.699Z,13.34
2023-05-01T22:05:41.205Z,13.34
2023-05-01T22:08:08.971Z,13.35
2023-05-01T22:10:36.632Z,13.33
2023-05-01T22:13:06.627Z,13.31
2023-05-01T22:15:34.731Z,13.31
2023-05-01T22:18:02.631Z,13.30
2023-05-01T22:20:30.460Z,13.28
2023-05-01T22:22:58.115Z,13.26
2023-05-01T22:25:25.777Z,13.26
2023-05-01T22:27:53.439Z,13.26
2023-05-01T22:30:21.101Z,13.26
2023-05-01T22:32:48.803Z,13.24
2023-05-01T22:35:16.640Z,13.22
2023-05-01T22:37:44.291Z,13.20
2023-05-01T22:40:11.961Z,13.17
2023-05-01T22:42:39.723Z,13.15
2023-05-01T22:45:07.501Z,13.12
2023-05-01T22:47:35.309Z,13.09
2023-05-01T22:50:03.326Z,13.07
2023-05-01T22:52:31.185Z,13.03
2023-05-01T22:54:58.856Z,13.01
2023-05-01T22:57:26.610Z,12.98
2023-05-01T22:59:54.274Z,12.93
2023-05-01T23:02:22.206Z,12.89
2023-05-01T23:04:51.335Z,12.85
2023-05-01T23:07:18.993Z,12.81
2023-05-01T23:09:46.967Z,12.77
2023-05-01T23:12:14.627Z,12.73
2023-05-01T23:14:42.286Z,12.69
2023-05-01T23:17:09.958Z,12.66
2023-05-01T23:19:38.128Z,12.63
2023-05-01T23:22:06.505Z,12.59
2023-05-01T23:24:34.264Z,12.55
2023-05-01T23:27:02.435Z,12.51
2023-05-01T23:29:30.100Z,12.47
2023-05-01T23:31:57.888Z,12.42
2023-05-01T23:34:26.243Z,12.37
2023-05-01T23:36:53.904Z,12.32
2023-05-01T23:39:21.566Z,12.27
2023-05-01T23:41:50.669Z,12.23
2023-05-01T23:44:18.322Z,12.19
2023-05-01T23:46:46.193Z,12.15
2023-05-01T23:49:13.955Z,12.10
2023-05-01T23:51:41.617Z,12.05
2023-05-01T23:54:09.286Z,12.01
2023-05-01T23:56:36.905Z,12.00
2023-05-01T23:59:04.708Z,11.99
